sensor_id;sensor_type;location;lat;lon;timestamp;temperature;humidity
15040;DHT22;7617;47.366;8.558;2024-02-23T00:01:10;9.00;99.90
15040;DHT22;7617;47.366;8.558;2024-02-23T00:03:39;9.00;99.90
15040;DHT22;7617;47.366;8.558;2024-02-23T00:06:07;9.00;99.90
15040;DHT22;7617;47.366;8.558;2024-02-23T00:08:36;9.00;99.90
15040;DHT22;7617;47.366;8.558;2024-02-23T00:11:04;9.00;99.90
15040;DHT22;7617;47.366;8.558;2024-02-23T00:16:03;9.00;99.90
15040;DHT22;7617;47.366;8.558;2024-02-23T00:18:33;9.00;99.90
15040;DHT22;7617;47.366;8.558;2024-02-23T00:21:01;9.00;99.90
15040;DHT22;7617;47.366;8.558;2024-02-23T00:23:30;9.00;99.90
15040;DHT22;7617;47.366;8.558;2024-02-23T00:25:59;9.10;99.90
15040;DHT22;7617;47.366;8.558;2024-02-23T00:30:56;9.10;99.90
15040;DHT22;7617;47.366;8.558;2024-02-23T00:35:55;9.10;99.90
15040;DHT22;7617;47.366;8.558;2024-02-23T00:40:52;9.10;99.90
15040;DHT22;7617;47.366;8.558;2024-02-23T00:43:20;9.00;99.90
15040;DHT22;7617;47.366;8.558;2024-02-23T00:45:49;9.10;99.90
15040;DHT22;7617;47.366;8.558;2024-02-23T00:48:18;9.10;99.90
15040;DHT22;7617;47.366;8.558;2024-02-23T00:53:17;9.10;99.90
15040;DHT22;7617;47.366;8.558;2024-02-23T00:55:47;9.20;99.90
15040;DHT22;7617;47.366;8.558;2024-02-23T00:58:16;9.20;99.90
15040;DHT22;7617;47.366;8.558;2024-02-23T01:00:44;9.20;99.90
15040;DHT22;7617;47.366;8.558;2024-02-23T01:03:13;9.20;99.90
15040;DHT22;7617;47.366;8.558;2024-02-23T01:08:10;9.20;99.90
15040;DHT22;7617;47.366;8.558;2024-02-23T01:10:40;9.20;99.90
15040;DHT22;7617;47.366;8.558;2024-02-23T01:13:08;9.20;99.90
15040;DHT22;7617;47.366;8.558;2024-02-23T01:15:37;9.20;99.90
15040;DHT22;7617;47.366;8.558;2024-02-23T01:20:35;9.20;99.90
15040;DHT22;7617;47.366;8.558;2024-02-23T01:28:04;9.30;99.90
15040;DHT22;7617;47.366;8.558;2024-02-23T01:33:00;9.30;99.90
15040;DHT22;7617;47.366;8.558;2024-02-23T01:35:30;9.20;99.90
15040;DHT22;7617;47.366;8.558;2024-02-23T01:37:58;9.10;99.90
15040;DHT22;7617;47.366;8.558;2024-02-23T01:43:04;8.90;99.90
15040;DHT22;7617;47.366;8.558;2024-02-23T01:45:32;8.70;99.90
15040;DHT22;7617;47.366;8.558;2024-02-23T01:50:30;8.10;99.90
15040;DHT22;7617;47.366;8.558;2024-02-23T01:53:01;7.90;99.90
15040;DHT22;7617;47.366;8.558;2024-02-23T01:55:31;7.80;99.90
15040;DHT22;7617;47.366;8.558;2024-02-23T01:58:04;7.60;99.90
15040;DHT22;7617;47.366;8.558;2024-02-23T02:00:35;7.70;99.90
15040;DHT22;7617;47.366;8.558;2024-02-23T02:05:37;7.70;99.90
15040;DHT22;7617;47.366;8.558;2024-02-23T02:08:06;7.60;99.90
15040;DHT22;7617;47.366;8.558;2024-02-23T02:10:35;7.60;99.90
15040;DHT22;7617;47.366;8.558;2024-02-23T02:13:05;7.60;99.90
15040;DHT22;7617;47.366;8.558;2024-02-23T02:18:02;7.60;99.90
15040;DHT22;7617;47.366;8.558;2024-02-23T02:20:33;7.50;99.90
15040;DHT22;7617;47.366;8.558;2024-02-23T02:23:04;7.50;99.90
15040;DHT22;7617;47.366;8.558;2024-02-23T02:25:34;7.50;99.90
15040;DHT22;7617;47.366;8.558;2024-02-23T02:28:07;7.50;99.90
15040;DHT22;7617;47.366;8.558;2024-02-23T02:30:36;7.50;99.90
15040;DHT22;7617;47.366;8.558;2024-02-23T02:38:01;7.50;99.90
15040;DHT22;7617;47.366;8.558;2024-02-23T02:40:30;7.60;99.90
15040;DHT22;7617;47.366;8.558;2024-02-23T02:45:29;7.60;99.90
15040;DHT22;7617;47.366;8.558;2024-02-23T02:55:24;8.00;99.90
15040;DHT22;7617;47.366;8.558;2024-02-23T02:57:52;7.90;99.90
15040;DHT22;7617;47.366;8.558;2024-02-23T03:02:50;7.90;99.90
15040;DHT22;7617;47.366;8.558;2024-02-23T03:05:18;7.90;99.90
15040;DHT22;7617;47.366;8.558;2024-02-23T03:07:47;7.80;99.90
15040;DHT22;7617;47.366;8.558;2024-02-23T03:10:14;7.90;99.90
15040;DHT22;7617;47.366;8.558;2024-02-23T03:12:42;7.80;99.90
15040;DHT22;7617;47.366;8.558;2024-02-23T03:15:11;7.90;99.90
15040;DHT22;7617;47.366;8.558;2024-02-23T03:17:39;8.00;99.90
15040;DHT22;7617;47.366;8.558;2024-02-23T03:20:11;8.00;99.90
15040;DHT22;7617;47.366;8.558;2024-02-23T03:25:09;8.10;99.90
15040;DHT22;7617;47.366;8.558;2024-02-23T03:27:38;7.90;99.90
15040;DHT22;7617;47.366;8.558;2024-02-23T03:30:07;7.70;99.90
15040;DHT22;7617;47.366;8.558;2024-02-23T03:35:07;7.60;99.90
15040;DHT22;7617;47.366;8.558;2024-02-23T03:37:37;7.90;99.90
15040;DHT22;7617;47.366;8.558;2024-02-23T03:40:07;7.90;99.90
15040;DHT22;7617;47.366;8.558;2024-02-23T03:45:05;8.10;99.90
15040;DHT22;7617;47.366;8.558;2024-02-23T03:47:34;8.10;99.90
15040;DHT22;7617;47.366;8.558;2024-02-23T03:50:03;8.10;99.90
15040;DHT22;7617;47.366;8.558;2024-02-23T03:52:33;8.10;99.90
15040;DHT22;7617;47.366;8.558;2024-02-23T03:55:02;8.10;99.90
15040;DHT22;7617;47.366;8.558;2024-02-23T04:00:00;8.20;99.90
15040;DHT22;7617;47.366;8.558;2024-02-23T04:02:38;8.20;99.90
15040;DHT22;7617;47.366;8.558;2024-02-23T04:05:07;8.20;99.90
15040;DHT22;7617;47.366;8.558;2024-02-23T04:10:07;8.20;99.90
15040;DHT22;7617;47.366;8.558;2024-02-23T04:15:04;8.30;99.90
15040;DHT22;7617;47.366;8.558;2024-02-23T04:17:33;8.20;99.90
15040;DHT22;7617;47.366;8.558;2024-02-23T04:20:07;8.20;99.90
15040;DHT22;7617;47.366;8.558;2024-02-23T04:22:36;8.30;99.90
15040;DHT22;7617;47.366;8.558;2024-02-23T04:25:07;8.40;99.90
15040;DHT22;7617;47.366;8.558;2024-02-23T04:30:06;8.50;99.90
15040;DHT22;7617;47.366;8.558;2024-02-23T04:32:34;8.50;99.90
15040;DHT22;7617;47.366;8.558;2024-02-23T04:35:03;8.50;99.90
15040;DHT22;7617;47.366;8.558;2024-02-23T04:37:31;8.60;99.90
15040;DHT22;7617;47.366;8.558;2024-02-23T04:40:04;8.60;99.90
15040;DHT22;7617;47.366;8.558;2024-02-23T04:42:34;8.50;99.90
15040;DHT22;7617;47.366;8.558;2024-02-23T04:45:03;8.50;99.90
15040;DHT22;7617;47.366;8.558;2024-02-23T04:47:31;8.50;99.90
15040;DHT22;7617;47.366;8.558;2024-02-23T04:50:00;8.60;99.90
15040;DHT22;7617;47.366;8.558;2024-02-23T04:52:30;8.50;99.90
15040;DHT22;7617;47.366;8.558;2024-02-23T04:54:58;8.50;99.90
15040;DHT22;7617;47.366;8.558;2024-02-23T04:59:56;8.50;99.90
15040;DHT22;7617;47.366;8.558;2024-02-23T05:02:25;8.60;99.90
15040;DHT22;7617;47.366;8.558;2024-02-23T05:04:56;8.40;99.90
15040;DHT22;7617;47.366;8.558;2024-02-23T05:07:24;8.70;99.90
15040;DHT22;7617;47.366;8.558;2024-02-23T05:09:53;8.60;99.90
15040;DHT22;7617;47.366;8.558;2024-02-23T05:12:21;8.60;99.90
15040;DHT22;7617;47.366;8.558;2024-02-23T05:14:49;8.60;99.90
15040;DHT22;7617;47.366;8.558;2024-02-23T05:17:19;8.70;99.90
15040;DHT22;7617;47.366;8.558;2024-02-23T05:24:45;8.80;99.90
15040;DHT22;7617;47.366;8.558;2024-02-23T05:27:14;8.70;99.90
15040;DHT22;7617;47.366;8.558;2024-02-23T05:29:42;8.70;99.90
15040;DHT22;7617;47.366;8.558;2024-02-23T05:32:11;8.50;99.90
15040;DHT22;7617;47.366;8.558;2024-02-23T05:34:40;8.60;99.90
15040;DHT22;7617;47.366;8.558;2024-02-23T05:37:09;8.70;99.90
15040;DHT22;7617;47.366;8.558;2024-02-23T05:39:37;8.70;99.90
15040;DHT22;7617;47.366;8.558;2024-02-23T05:42:06;8.70;99.90
15040;DHT22;7617;47.366;8.558;2024-02-23T05:44:34;8.60;99.90
15040;DHT22;7617;47.366;8.558;2024-02-23T05:47:03;8.60;99.90
15040;DHT22;7617;47.366;8.558;2024-02-23T05:52:03;8.50;99.90
15040;DHT22;7617;47.366;8.558;2024-02-23T05:57:00;8.20;99.90
15040;DHT22;7617;47.366;8.558;2024-02-23T05:59:30;8.30;99.90
15040;DHT22;7617;47.366;8.558;2024-02-23T06:04:27;8.30;99.90
15040;DHT22;7617;47.366;8.558;2024-02-23T06:09:26;8.10;99.70
15040;DHT22;7617;47.366;8.558;2024-02-23T06:11:54;8.10;99.90
15040;DHT22;7617;47.366;8.558;2024-02-23T06:24:22;8.00;99.40
15040;DHT22;7617;47.366;8.558;2024-02-23T06:26:51;8.00;99.40
15040;DHT22;7617;47.366;8.558;2024-02-23T06:29:20;8.00;99.60
15040;DHT22;7617;47.366;8.558;2024-02-23T06:34:16;7.90;99.40
15040;DHT22;7617;47.366;8.558;2024-02-23T06:36:45;7.80;99.30
15040;DHT22;7617;47.366;8.558;2024-02-23T06:39:14;7.80;99.50
15040;DHT22;7617;47.366;8.558;2024-02-23T06:44:15;7.80;99.90
15040;DHT22;7617;47.366;8.558;2024-02-23T06:46:43;7.60;99.70
15040;DHT22;7617;47.366;8.558;2024-02-23T06:54:09;7.60;99.90
15040;DHT22;7617;47.366;8.558;2024-02-23T06:56:38;7.50;99.60
15040;DHT22;7617;47.366;8.558;2024-02-23T06:59:06;7.60;99.90
15040;DHT22;7617;47.366;8.558;2024-02-23T07:01:36;7.70;99.60
15040;DHT22;7617;47.366;8.558;2024-02-23T07:04:14;7.70;99.90
15040;DHT22;7617;47.366;8.558;2024-02-23T07:09:11;8.00;99.90
15040;DHT22;7617;47.366;8.558;2024-02-23T07:11:40;8.00;99.90
15040;DHT22;7617;47.366;8.558;2024-02-23T07:14:11;8.00;99.90
15040;DHT22;7617;47.366;8.558;2024-02-23T07:16:42;8.10;99.60
15040;DHT22;7617;47.366;8.558;2024-02-23T07:19:10;8.20;99.90
15040;DHT22;7617;47.366;8.558;2024-02-23T07:31:57;8.30;99.40
15040;DHT22;7617;47.366;8.558;2024-02-23T08:31:26;8.90;99.10
15040;DHT22;7617;47.366;8.558;2024-02-23T08:33:55;8.90;99.90
15040;DHT22;7617;47.366;8.558;2024-02-23T08:41:21;9.00;95.60
15040;DHT22;7617;47.366;8.558;2024-02-23T08:43:49;9.20;95.40
15040;DHT22;7617;47.366;8.558;2024-02-23T08:46:18;9.10;94.60
15040;DHT22;7617;47.366;8.558;2024-02-23T08:48:47;9.00;95.00
15040;DHT22;7617;47.366;8.558;2024-02-23T08:51:15;9.00;94.40
15040;DHT22;7617;47.366;8.558;2024-02-23T08:53:43;9.10;94.60
15040;DHT22;7617;47.366;8.558;2024-02-23T08:56:12;9.00;94.50
15040;DHT22;7617;47.366;8.558;2024-02-23T08:58:43;9.10;94.30
15040;DHT22;7617;47.366;8.558;2024-02-23T09:03:40;9.40;94.40
15040;DHT22;7617;47.366;8.558;2024-02-23T09:08:38;9.10;93.70
15040;DHT22;7617;47.366;8.558;2024-02-23T09:11:08;9.20;93.60
15040;DHT22;7617;47.366;8.558;2024-02-23T09:13:38;9.20;94.70
15040;DHT22;7617;47.366;8.558;2024-02-23T09:16:09;9.00;94.30
15040;DHT22;7617;47.366;8.558;2024-02-23T09:18:37;9.40;95.40
15040;DHT22;7617;47.366;8.558;2024-02-23T09:21:05;9.40;94.40
15040;DHT22;7617;47.366;8.558;2024-02-23T09:23:33;9.50;95.90
15040;DHT22;7617;47.366;8.558;2024-02-23T09:26:08;9.40;93.00
15040;DHT22;7617;47.366;8.558;2024-02-23T09:28:37;9.20;94.10
15040;DHT22;7617;47.366;8.558;2024-02-23T09:31:09;9.70;94.00
15040;DHT22;7617;47.366;8.558;2024-02-23T09:33:37;9.80;94.00
15040;DHT22;7617;47.366;8.558;2024-02-23T09:36:05;9.80;94.20
15040;DHT22;7617;47.366;8.558;2024-02-23T09:38:33;9.30;93.60
15040;DHT22;7617;47.366;8.558;2024-02-23T09:41:03;9.30;92.10
15040;DHT22;7617;47.366;8.558;2024-02-23T09:43:33;9.60;93.10
15040;DHT22;7617;47.366;8.558;2024-02-23T09:46:02;9.90;96.30
15040;DHT22;7617;47.366;8.558;2024-02-23T09:48:31;9.70;92.10
15040;DHT22;7617;47.366;8.558;2024-02-23T09:51:01;9.70;91.90
15040;DHT22;7617;47.366;8.558;2024-02-23T09:53:30;9.80;92.20
15040;DHT22;7617;47.366;8.558;2024-02-23T09:55:59;9.70;92.00
15040;DHT22;7617;47.366;8.558;2024-02-23T09:58:28;9.90;91.90
15040;DHT22;7617;47.366;8.558;2024-02-23T10:00:58;9.80;91.50
15040;DHT22;7617;47.366;8.558;2024-02-23T10:03:27;9.80;91.30
15040;DHT22;7617;47.366;8.558;2024-02-23T10:05:59;9.70;91.40
15040;DHT22;7617;47.366;8.558;2024-02-23T10:08:28;9.70;91.20
15040;DHT22;7617;47.366;8.558;2024-02-23T10:10:57;9.60;91.30
15040;DHT22;7617;47.366;8.558;2024-02-23T10:18:40;9.70;91.80
15040;DHT22;7617;47.366;8.558;2024-02-23T10:21:10;9.60;91.40
15040;DHT22;7617;47.366;8.558;2024-02-23T10:23:39;9.70;91.70
15040;DHT22;7617;47.366;8.558;2024-02-23T10:26:07;10.00;91.90
15040;DHT22;7617;47.366;8.558;2024-02-23T10:28:37;9.90;90.90
15040;DHT22;7617;47.366;8.558;2024-02-23T10:31:06;9.80;90.90
15040;DHT22;7617;47.366;8.558;2024-02-23T10:33:39;9.80;90.80
15040;DHT22;7617;47.366;8.558;2024-02-23T10:36:11;9.80;91.20
15040;DHT22;7617;47.366;8.558;2024-02-23T10:38:40;9.80;91.30
15040;DHT22;7617;47.366;8.558;2024-02-23T10:41:13;9.80;90.90
15040;DHT22;7617;47.366;8.558;2024-02-23T10:43:44;10.00;90.90
15040;DHT22;7617;47.366;8.558;2024-02-23T10:46:14;9.90;91.00
15040;DHT22;7617;47.366;8.558;2024-02-23T10:48:44;10.20;91.10
15040;DHT22;7617;47.366;8.558;2024-02-23T10:51:14;10.10;90.60
15040;DHT22;7617;47.366;8.558;2024-02-23T10:53:49;10.10;90.30
15040;DHT22;7617;47.366;8.558;2024-02-23T10:56:18;10.00;90.80
15040;DHT22;7617;47.366;8.558;2024-02-23T10:58:46;10.00;91.50
15040;DHT22;7617;47.366;8.558;2024-02-23T11:01:15;10.20;90.90
15040;DHT22;7617;47.366;8.558;2024-02-23T11:03:44;10.10;90.70
15040;DHT22;7617;47.366;8.558;2024-02-23T11:06:16;10.10;90.90
15040;DHT22;7617;47.366;8.558;2024-02-23T11:08:48;10.10;91.20
15040;DHT22;7617;47.366;8.558;2024-02-23T11:13:46;10.10;90.80
15040;DHT22;7617;47.366;8.558;2024-02-23T11:16:22;10.20;90.90
15040;DHT22;7617;47.366;8.558;2024-02-23T11:19:03;10.30;91.10
15040;DHT22;7617;47.366;8.558;2024-02-23T11:21:37;10.30;90.80
15040;DHT22;7617;47.366;8.558;2024-02-23T11:24:07;10.30;91.00
15040;DHT22;7617;47.366;8.558;2024-02-23T11:26:37;10.30;90.90
15040;DHT22;7617;47.366;8.558;2024-02-23T11:29:12;10.30;91.40
15040;DHT22;7617;47.366;8.558;2024-02-23T11:31:46;10.30;94.80
15040;DHT22;7617;47.366;8.558;2024-02-23T11:34:22;10.40;91.20
15040;DHT22;7617;47.366;8.558;2024-02-23T11:36:53;10.70;91.20
15040;DHT22;7617;47.366;8.558;2024-02-23T11:39:22;10.70;90.80
15040;DHT22;7617;47.366;8.558;2024-02-23T11:41:51;10.90;90.90
15040;DHT22;7617;47.366;8.558;2024-02-23T11:49:16;11.30;92.40
15040;DHT22;7617;47.366;8.558;2024-02-23T11:59:13;11.30;93.10
15040;DHT22;7617;47.366;8.558;2024-02-23T12:04:14;11.60;99.90
15040;DHT22;7617;47.366;8.558;2024-02-23T12:09:14;11.80;90.80
15040;DHT22;7617;47.366;8.558;2024-02-23T12:16:40;11.70;97.90
15040;DHT22;7617;47.366;8.558;2024-02-23T12:19:08;11.70;90.70
15040;DHT22;7617;47.366;8.558;2024-02-23T12:26:36;11.70;99.90
15040;DHT22;7617;47.366;8.558;2024-02-23T12:29:05;11.90;91.70
15040;DHT22;7617;47.366;8.558;2024-02-23T12:31:33;12.00;99.90
15040;DHT22;7617;47.366;8.558;2024-02-23T12:41:31;11.40;97.70
15040;DHT22;7617;47.366;8.558;2024-02-23T12:48:58;11.30;99.90
15040;DHT22;7617;47.366;8.558;2024-02-23T12:58:52;11.50;93.30
15040;DHT22;7617;47.366;8.558;2024-02-23T14:08:28;10.60;99.10
15040;DHT22;7617;47.366;8.558;2024-02-23T14:10:58;10.80;95.90
15040;DHT22;7617;47.366;8.558;2024-02-23T14:13:26;11.00;99.90
15040;DHT22;7617;47.366;8.558;2024-02-23T14:20:52;10.90;94.30
15040;DHT22;7617;47.366;8.558;2024-02-23T14:23:20;10.70;99.90
15040;DHT22;7617;47.366;8.558;2024-02-23T14:35:47;10.90;99.90
15040;DHT22;7617;47.366;8.558;2024-02-23T14:38:16;11.20;96.70
15040;DHT22;7617;47.366;8.558;2024-02-23T14:40:46;11.10;94.10
15040;DHT22;7617;47.366;8.558;2024-02-23T14:53:10;11.20;99.90
15040;DHT22;7617;47.366;8.558;2024-02-23T15:00:36;11.10;99.90
15040;DHT22;7617;47.366;8.558;2024-02-23T15:03:06;11.40;96.10
15040;DHT22;7617;47.366;8.558;2024-02-23T15:18:08;11.30;95.50
15040;DHT22;7617;47.366;8.558;2024-02-23T15:20:37;10.90;99.90
15040;DHT22;7617;47.366;8.558;2024-02-23T15:25:34;11.50;99.90
15040;DHT22;7617;47.366;8.558;2024-02-23T15:28:09;11.30;99.90
15040;DHT22;7617;47.366;8.558;2024-02-23T15:30:37;11.20;99.90
15040;DHT22;7617;47.366;8.558;2024-02-23T15:35:35;11.40;93.30
15040;DHT22;7617;47.366;8.558;2024-02-23T15:47:59;11.60;99.90
15040;DHT22;7617;47.366;8.558;2024-02-23T15:50:27;11.70;99.90
15040;DHT22;7617;47.366;8.558;2024-02-23T15:53:19;12.70;92.90
15040;DHT22;7617;47.366;8.558;2024-02-23T15:58:19;11.70;96.80
15040;DHT22;7617;47.366;8.558;2024-02-23T16:23:10;10.90;94.50
15040;DHT22;7617;47.366;8.558;2024-02-23T16:25:39;10.70;99.90
15040;DHT22;7617;47.366;8.558;2024-02-23T16:43:03;10.40;99.90
15040;DHT22;7617;47.366;8.558;2024-02-23T16:58:02;10.40;99.90
15040;DHT22;7617;47.366;8.558;2024-02-23T17:22:52;10.20;99.90
15040;DHT22;7617;47.366;8.558;2024-02-23T17:27:51;10.30;99.90
15040;DHT22;7617;47.366;8.558;2024-02-23T17:37:47;9.90;95.80
15040;DHT22;7617;47.366;8.558;2024-02-23T17:45:13;9.80;99.90
15040;DHT22;7617;47.366;8.558;2024-02-23T18:02:37;9.70;97.60
15040;DHT22;7617;47.366;8.558;2024-02-23T18:07:34;9.50;99.90
15040;DHT22;7617;47.366;8.558;2024-02-23T18:20:00;9.50;99.90
15040;DHT22;7617;47.366;8.558;2024-02-23T18:25:00;9.50;99.90
15040;DHT22;7617;47.366;8.558;2024-02-23T18:30:00;9.40;95.30
15040;DHT22;7617;47.366;8.558;2024-02-23T18:32:29;9.30;99.80
15040;DHT22;7617;47.366;8.558;2024-02-23T18:34:57;9.30;99.90
15040;DHT22;7617;47.366;8.558;2024-02-23T18:52:21;9.00;94.40
15040;DHT22;7617;47.366;8.558;2024-02-23T18:54:50;8.90;94.40
15040;DHT22;7617;47.366;8.558;2024-02-23T18:57:20;8.80;99.90
15040;DHT22;7617;47.366;8.558;2024-02-23T18:59:48;8.80;99.90
15040;DHT22;7617;47.366;8.558;2024-02-23T19:04:46;8.80;95.40
15040;DHT22;7617;47.366;8.558;2024-02-23T19:07:15;8.70;95.60
15040;DHT22;7617;47.366;8.558;2024-02-23T19:09:43;8.70;95.80
15040;DHT22;7617;47.366;8.558;2024-02-23T19:12:12;8.70;95.90
15040;DHT22;7617;47.366;8.558;2024-02-23T19:14:40;8.70;96.00
15040;DHT22;7617;47.366;8.558;2024-02-23T19:17:09;8.70;96.10
15040;DHT22;7617;47.366;8.558;2024-02-23T19:19:37;8.70;96.10
15040;DHT22;7617;47.366;8.558;2024-02-23T19:22:09;8.70;96.20
15040;DHT22;7617;47.366;8.558;2024-02-23T19:27:06;8.70;96.00
15040;DHT22;7617;47.366;8.558;2024-02-23T19:29:35;8.70;96.10
15040;DHT22;7617;47.366;8.558;2024-02-23T19:32:04;8.70;96.20
15040;DHT22;7617;47.366;8.558;2024-02-23T19:34:32;8.80;96.10
15040;DHT22;7617;47.366;8.558;2024-02-23T19:37:00;8.70;95.90
15040;DHT22;7617;47.366;8.558;2024-02-23T19:39:30;8.80;96.00
15040;DHT22;7617;47.366;8.558;2024-02-23T19:41:59;8.70;96.20
15040;DHT22;7617;47.366;8.558;2024-02-23T19:44:27;8.70;96.20
15040;DHT22;7617;47.366;8.558;2024-02-23T19:46:56;8.60;96.20
15040;DHT22;7617;47.366;8.558;2024-02-23T19:49:24;8.50;96.10
15040;DHT22;7617;47.366;8.558;2024-02-23T19:51:53;8.50;96.20
15040;DHT22;7617;47.366;8.558;2024-02-23T19:56:51;8.30;96.20
15040;DHT22;7617;47.366;8.558;2024-02-23T19:59:20;8.40;96.30
15040;DHT22;7617;47.366;8.558;2024-02-23T20:01:48;8.30;96.50
15040;DHT22;7617;47.366;8.558;2024-02-23T20:04:18;8.30;96.50
15040;DHT22;7617;47.366;8.558;2024-02-23T20:06:47;8.20;96.50
15040;DHT22;7617;47.366;8.558;2024-02-23T20:09:16;8.20;96.60
15040;DHT22;7617;47.366;8.558;2024-02-23T20:11:44;8.20;96.50
15040;DHT22;7617;47.366;8.558;2024-02-23T20:14:15;8.20;96.50
15040;DHT22;7617;47.366;8.558;2024-02-23T20:16:44;8.10;96.60
15040;DHT22;7617;47.366;8.558;2024-02-23T20:19:12;8.00;96.70
15040;DHT22;7617;47.366;8.558;2024-02-23T20:21:41;8.00;96.90
15040;DHT22;7617;47.366;8.558;2024-02-23T20:24:10;7.90;97.00
15040;DHT22;7617;47.366;8.558;2024-02-23T20:26:38;7.90;97.10
15040;DHT22;7617;47.366;8.558;2024-02-23T20:31:38;7.90;97.00
15040;DHT22;7617;47.366;8.558;2024-02-23T20:34:09;7.80;97.10
15040;DHT22;7617;47.366;8.558;2024-02-23T20:36:38;7.80;97.10
15040;DHT22;7617;47.366;8.558;2024-02-23T20:39:07;7.80;97.10
15040;DHT22;7617;47.366;8.558;2024-02-23T20:41:35;7.80;97.40
15040;DHT22;7617;47.366;8.558;2024-02-23T20:44:05;7.80;97.20
15040;DHT22;7617;47.366;8.558;2024-02-23T20:46:33;7.80;97.20
15040;DHT22;7617;47.366;8.558;2024-02-23T20:49:03;7.70;97.20
15040;DHT22;7617;47.366;8.558;2024-02-23T20:51:32;7.70;97.50
15040;DHT22;7617;47.366;8.558;2024-02-23T20:54:00;7.70;97.40
15040;DHT22;7617;47.366;8.558;2024-02-23T20:58:59;7.70;97.60
15040;DHT22;7617;47.366;8.558;2024-02-23T21:01:28;7.60;97.60
15040;DHT22;7617;47.366;8.558;2024-02-23T21:03:56;7.70;97.60
15040;DHT22;7617;47.366;8.558;2024-02-23T21:06:28;7.60;97.60
15040;DHT22;7617;47.366;8.558;2024-02-23T21:11:25;7.50;97.70
15040;DHT22;7617;47.366;8.558;2024-02-23T21:13:54;7.50;97.70
15040;DHT22;7617;47.366;8.558;2024-02-23T21:16:22;7.50;97.90
15040;DHT22;7617;47.366;8.558;2024-02-23T21:18:52;7.50;98.00
15040;DHT22;7617;47.366;8.558;2024-02-23T21:21:21;7.60;98.20
15040;DHT22;7617;47.366;8.558;2024-02-23T21:23:52;7.60;98.30
15040;DHT22;7617;47.366;8.558;2024-02-23T21:26:21;7.70;98.10
15040;DHT22;7617;47.366;8.558;2024-02-23T21:31:18;7.70;98.00
15040;DHT22;7617;47.366;8.558;2024-02-23T21:33:46;7.70;98.00
15040;DHT22;7617;47.366;8.558;2024-02-23T21:36:19;7.70;97.90
15040;DHT22;7617;47.366;8.558;2024-02-23T21:38:48;7.70;97.80
15040;DHT22;7617;47.366;8.558;2024-02-23T21:41:17;7.60;97.80
15040;DHT22;7617;47.366;8.558;2024-02-23T21:43:46;7.60;98.00
15040;DHT22;7617;47.366;8.558;2024-02-23T21:46:14;7.60;98.00
15040;DHT22;7617;47.366;8.558;2024-02-23T21:48:42;7.60;98.10
15040;DHT22;7617;47.366;8.558;2024-02-23T21:51:11;7.60;98.10
15040;DHT22;7617;47.366;8.558;2024-02-23T21:53:40;7.50;98.20
15040;DHT22;7617;47.366;8.558;2024-02-23T21:56:08;7.50;98.10
15040;DHT22;7617;47.366;8.558;2024-02-23T21:58:38;7.60;98.10
15040;DHT22;7617;47.366;8.558;2024-02-23T22:01:06;7.60;98.10
15040;DHT22;7617;47.366;8.558;2024-02-23T22:06:04;7.60;98.20
15040;DHT22;7617;47.366;8.558;2024-02-23T22:08:32;7.60;98.20
15040;DHT22;7617;47.366;8.558;2024-02-23T22:11:01;7.60;98.20
15040;DHT22;7617;47.366;8.558;2024-02-23T22:15:59;7.50;98.20
15040;DHT22;7617;47.366;8.558;2024-02-23T22:18:29;7.50;98.40
15040;DHT22;7617;47.366;8.558;2024-02-23T22:21:03;7.50;98.50
15040;DHT22;7617;47.366;8.558;2024-02-23T22:26:00;7.50;98.30
15040;DHT22;7617;47.366;8.558;2024-02-23T22:28:29;7.40;98.40
15040;DHT22;7617;47.366;8.558;2024-02-23T22:30:59;7.40;98.40
15040;DHT22;7617;47.366;8.558;2024-02-23T22:33:27;7.40;98.50
15040;DHT22;7617;47.366;8.558;2024-02-23T22:35:55;7.40;98.30
15040;DHT22;7617;47.366;8.558;2024-02-23T22:38:24;7.40;98.30
15040;DHT22;7617;47.366;8.558;2024-02-23T22:40:52;7.40;98.30
15040;DHT22;7617;47.366;8.558;2024-02-23T22:43:20;7.30;98.30
15040;DHT22;7617;47.366;8.558;2024-02-23T22:45:49;7.20;98.40
15040;DHT22;7617;47.366;8.558;2024-02-23T22:48:20;7.30;98.50
15040;DHT22;7617;47.366;8.558;2024-02-23T22:50:48;7.20;98.50
15040;DHT22;7617;47.366;8.558;2024-02-23T22:55:45;7.20;98.80
15040;DHT22;7617;47.366;8.558;2024-02-23T22:58:12;7.10;98.80
15040;DHT22;7617;47.366;8.558;2024-02-23T23:00:40;7.10;99.00
15040;DHT22;7617;47.366;8.558;2024-02-23T23:03:09;7.10;99.00
15040;DHT22;7617;47.366;8.558;2024-02-23T23:05:39;7.10;99.10
15040;DHT22;7617;47.366;8.558;2024-02-23T23:08:07;7.20;99.00
15040;DHT22;7617;47.366;8.558;2024-02-23T23:10:36;7.30;98.80
15040;DHT22;7617;47.366;8.558;2024-02-23T23:13:04;7.30;98.60
15040;DHT22;7617;47.366;8.558;2024-02-23T23:15:32;7.20;98.80
15040;DHT22;7617;47.366;8.558;2024-02-23T23:18:00;7.30;98.80
15040;DHT22;7617;47.366;8.558;2024-02-23T23:20:28;7.30;98.70
15040;DHT22;7617;47.366;8.558;2024-02-23T23:22:58;7.30;98.40
15040;DHT22;7617;47.366;8.558;2024-02-23T23:25:27;7.30;98.30
15040;DHT22;7617;47.366;8.558;2024-02-23T23:35:22;7.00;98.60
15040;DHT22;7617;47.366;8.558;2024-02-23T23:37:50;7.00;98.80
15040;DHT22;7617;47.366;8.558;2024-02-23T23:40:20;6.90;98.90
15040;DHT22;7617;47.366;8.558;2024-02-23T23:42:48;6.90;99.00
15040;DHT22;7617;47.366;8.558;2024-02-23T23:45:16;6.90;99.10
15040;DHT22;7617;47.366;8.558;2024-02-23T23:47:45;6.80;99.20
15040;DHT22;7617;47.366;8.558;2024-02-23T23:50:13;6.80;99.30
15040;DHT22;7617;47.366;8.558;2024-02-23T23:52:42;6.90;99.30
15040;DHT22;7617;47.366;8.558;2024-02-23T23:55:10;6.90;99.30
15040;DHT22;7617;47.366;8.558;2024-02-23T23:57:40;6.90;99.30
